createdAt,value
2023-06-14T00:01:41.717Z,3.58
2023-06-14T00:04:10.342Z,3.70
2023-06-14T00:06:37.427Z,4.43
2023-06-14T00:09:04.417Z,4.13
2023-06-14T00:11:32.121Z,4.57
2023-06-14T00:13:59.324Z,3.92
2023-06-14T00:16:26.415Z,3.63
2023-06-14T00:18:53.392Z,4.50
2023-06-14T00:21:21.039Z,4.18
2023-06-14T00:23:48.183Z,3.70
2023-06-14T00:26:15.926Z,3.85
2023-06-14T00:28:44.707Z,3.33
2023-06-14T00:31:11.745Z,3.78
2023-06-14T00:33:38.798Z,3.95
2023-06-14T00:36:06.378Z,3.45
2023-06-14T00:38:33.363Z,3.40
2023-06-14T00:41:01.766Z,3.43
2023-06-14T00:43:28.772Z,4.03
2023-06-14T00:45:55.991Z,3.47
2023-06-14T00:48:23.882Z,3.50
2023-06-14T00:50:53.894Z,3.90
2023-06-14T00:53:21.546Z,3.67
2023-06-14T00:55:48.888Z,3.25
2023-06-14T00:58:18.072Z,3.42
2023-06-14T01:00:45.612Z,3.70
2023-06-14T01:03:13.979Z,3.53
2023-06-14T01:05:41.416Z,3.00
2023-06-14T01:08:29.368Z,2.80
2023-06-14T01:11:13.278Z,3.00
2023-06-14T01:13:43.906Z,2.97
2023-06-14T01:16:11.933Z,2.88
2023-06-14T01:18:39.445Z,3.03
2023-06-14T01:21:09.934Z,3.25
2023-06-14T01:23:36.985Z,2.75
2023-06-14T01:26:04.733Z,2.97
2023-06-14T01:28:35.919Z,3.47
2023-06-14T01:31:05.869Z,3.10
2023-06-14T01:33:36.484Z,3.00
2023-06-14T01:36:06.309Z,3.35
2023-06-14T01:38:34.168Z,3.58
2023-06-14T01:41:02.863Z,3.00
2023-06-14T01:43:32.209Z,2.60
2023-06-14T01:46:00.864Z,2.95
2023-06-14T01:48:28.528Z,3.03
2023-06-14T01:50:55.886Z,2.80
2023-06-14T01:53:23.434Z,3.70
2023-06-14T01:55:50.530Z,2.40
2023-06-14T01:58:17.993Z,2.63
2023-06-14T02:00:46.302Z,2.80
2023-06-14T02:03:14.305Z,2.80
2023-06-14T02:05:41.632Z,2.97
2023-06-14T02:08:08.866Z,3.00
2023-06-14T02:10:54.674Z,2.88
2023-06-14T02:13:22.914Z,2.70
2023-06-14T02:15:55.737Z,2.45
2023-06-14T02:18:23.290Z,2.10
2023-06-14T02:20:50.379Z,2.17
2023-06-14T02:23:17.715Z,2.35
2023-06-14T02:25:46.164Z,2.42
2023-06-14T02:28:13.332Z,2.50
2023-06-14T02:30:41.328Z,2.13
2023-06-14T02:33:08.710Z,2.30
2023-06-14T02:35:35.788Z,2.33
2023-06-14T02:38:03.191Z,2.53
2023-06-14T02:40:30.176Z,2.13
2023-06-14T02:42:57.781Z,2.17
2023-06-14T02:45:24.752Z,2.63
2023-06-14T02:47:52.799Z,2.65
2023-06-14T02:50:19.995Z,2.42
2023-06-14T02:52:47.107Z,2.45
2023-06-14T02:55:14.171Z,2.75
2023-06-14T02:57:41.520Z,2.47
2023-06-14T03:00:11.404Z,2.75
2023-06-14T03:02:39.318Z,2.30
2023-06-14T03:05:08.241Z,3.00
2023-06-14T03:07:36.023Z,2.38
2023-06-14T03:10:05.040Z,2.37
2023-06-14T03:12:32.302Z,2.42
2023-06-14T03:15:03.542Z,3.80
2023-06-14T03:17:34.917Z,8.07
2023-06-14T03:20:04.705Z,8.70
2023-06-14T03:22:31.896Z,9.07
2023-06-14T03:25:00.636Z,11.02
2023-06-14T03:27:30.954Z,8.98
2023-06-14T03:29:58.614Z,11.55
2023-06-14T03:32:25.915Z,9.10
2023-06-14T03:34:53.800Z,10.10
2023-06-14T03:37:24.066Z,11.40
2023-06-14T03:39:51.079Z,11.25
2023-06-14T03:42:22.368Z,10.65
2023-06-14T03:44:50.002Z,9.18
2023-06-14T03:47:19.475Z,10.57
2023-06-14T03:49:47.412Z,9.25
2023-06-14T03:52:15.424Z,9.18
2023-06-14T03:57:16.447Z,7.90
2023-06-14T03:59:44.720Z,8.37
2023-06-14T04:02:13.115Z,8.73
2023-06-14T04:04:40.143Z,7.85
2023-06-14T04:07:09.932Z,7.72
2023-06-14T04:09:37.544Z,9.38
2023-06-14T04:12:05.225Z,8.83
2023-06-14T04:14:36.017Z,8.95
2023-06-14T04:17:03.533Z,7.68
2023-06-14T04:19:31.054Z,7.70
2023-06-14T04:22:02.321Z,7.60
2023-06-14T04:24:33.437Z,7.70
2023-06-14T04:27:02.326Z,7.95
2023-06-14T04:29:30.830Z,7.18
2023-06-14T04:32:02.972Z,7.35
2023-06-14T04:34:35.379Z,7.07
2023-06-14T04:37:04.168Z,7.80
2023-06-14T04:39:34.325Z,7.28
2023-06-14T04:42:04.757Z,7.85
2023-06-14T04:44:33.143Z,6.65
2023-06-14T04:47:05.406Z,7.18
2023-06-14T04:49:34.037Z,7.43
2023-06-14T04:52:02.732Z,7.55
2023-06-14T04:54:39.792Z,6.38
2023-06-14T04:57:10.295Z,6.80
2023-06-14T04:59:37.698Z,7.15
2023-06-14T05:02:05.153Z,8.23
2023-06-14T05:04:32.281Z,10.10
2023-06-14T05:06:59.957Z,9.68
2023-06-14T05:09:26.936Z,10.18
2023-06-14T05:11:53.992Z,10.23
2023-06-14T05:14:23.683Z,10.67
2023-06-14T05:16:52.454Z,10.63
2023-06-14T05:19:20.027Z,11.30
2023-06-14T05:21:47.754Z,13.23
2023-06-14T05:24:15.677Z,13.18
2023-06-14T05:26:42.843Z,13.40
2023-06-14T05:29:09.785Z,12.38
2023-06-14T05:31:37.006Z,11.52
2023-06-14T05:34:04.377Z,10.30
2023-06-14T05:36:31.935Z,11.80
2023-06-14T05:39:00.910Z,11.93
2023-06-14T05:41:28.358Z,10.40
2023-06-14T05:43:56.559Z,10.88
2023-06-14T05:46:26.719Z,11.18
2023-06-14T05:48:54.753Z,11.35
2023-06-14T05:51:22.435Z,10.73
2023-06-14T05:53:50.047Z,10.80
2023-06-14T05:56:21.345Z,10.10
2023-06-14T05:58:49.052Z,10.23
2023-06-14T06:01:16.282Z,10.27
2023-06-14T06:03:47.754Z,11.63
2023-06-14T06:06:15.535Z,10.00
2023-06-14T06:08:42.829Z,9.80
2023-06-14T06:11:09.956Z,9.57
2023-06-14T06:13:37.248Z,11.10
2023-06-14T06:16:05.145Z,10.63
2023-06-14T06:18:32.400Z,9.88
2023-06-14T06:20:59.470Z,9.65
2023-06-14T06:23:27.077Z,10.52
2023-06-14T06:25:54.563Z,10.25
2023-06-14T06:28:21.670Z,10.30
2023-06-14T06:30:48.895Z,10.77
2023-06-14T06:33:16.086Z,11.75
2023-06-14T06:35:44.055Z,11.82
2023-06-14T06:38:11.442Z,11.45
2023-06-14T06:40:38.967Z,12.33
2023-06-14T06:43:06.204Z,12.32
2023-06-14T06:45:41.684Z,13.15
2023-06-14T06:48:10.849Z,11.45
2023-06-14T06:50:38.201Z,11.73
2023-06-14T06:53:06.367Z,12.33
2023-06-14T06:55:33.648Z,11.23
2023-06-14T06:58:01.494Z,11.48
2023-06-14T07:00:28.836Z,11.82
2023-06-14T07:02:56.387Z,11.93
2023-06-14T07:05:23.914Z,11.30
2023-06-14T07:07:51.009Z,12.20
2023-06-14T07:10:18.485Z,11.60
2023-06-14T07:12:46.023Z,11.23
2023-06-14T07:15:14.302Z,9.65
2023-06-14T07:17:42.705Z,10.43
2023-06-14T07:20:14.703Z,11.40
2023-06-14T07:22:43.164Z,12.18
2023-06-14T07:25:13.594Z,11.18
2023-06-14T07:27:42.297Z,10.80
2023-06-14T07:30:10.107Z,10.30
2023-06-14T07:32:37.983Z,10.15
2023-06-14T07:35:05.485Z,11.18
2023-06-14T07:37:32.565Z,9.75
2023-06-14T07:39:59.628Z,9.90
2023-06-14T07:42:27.085Z,10.40
2023-06-14T07:44:54.985Z,11.15
2023-06-14T07:47:22.288Z,10.13
2023-06-14T07:49:49.465Z,12.48
2023-06-14T07:52:16.527Z,9.05
2023-06-14T07:54:43.580Z,8.53
2023-06-14T07:57:10.668Z,8.00
2023-06-14T07:59:37.636Z,8.40
2023-06-14T08:02:05.401Z,9.75
2023-06-14T08:04:34.065Z,8.70
2023-06-14T08:07:02.171Z,7.70
2023-06-14T08:09:30.217Z,8.38
2023-06-14T08:11:58.100Z,9.15
2023-06-14T08:14:25.211Z,9.27
2023-06-14T08:16:52.225Z,11.52
2023-06-14T08:19:19.491Z,16.47
2023-06-14T08:21:47.371Z,10.20
2023-06-14T08:24:15.188Z,8.43
2023-06-14T08:26:42.470Z,8.45
2023-06-14T08:29:09.560Z,8.52
2023-06-14T08:31:36.603Z,9.03
2023-06-14T08:34:05.541Z,8.70
2023-06-14T08:36:34.195Z,8.63
2023-06-14T08:39:01.361Z,9.30
2023-06-14T08:41:30.678Z,8.73
2023-06-14T08:43:58.521Z,9.23
2023-06-14T08:46:28.495Z,8.85
2023-06-14T08:48:59.730Z,11.88
2023-06-14T08:51:35.073Z,8.50
2023-06-14T08:54:02.993Z,10.63
2023-06-14T08:56:30.592Z,7.67
2023-06-14T08:59:01.272Z,11.60
2023-06-14T09:01:28.362Z,15.18
2023-06-14T09:03:58.848Z,11.40
2023-06-14T09:06:26.275Z,9.02
2023-06-14T09:08:53.572Z,8.07
2023-06-14T09:11:20.654Z,9.25
2023-06-14T09:13:48.521Z,9.27
2023-06-14T09:16:16.097Z,10.00
2023-06-14T09:18:45.633Z,8.85
2023-06-14T09:21:13.617Z,7.60
2023-06-14T09:23:42.857Z,6.30
2023-06-14T09:26:11.179Z,6.90
2023-06-14T09:28:47.073Z,8.13
2023-06-14T09:31:16.128Z,8.15
2023-06-14T09:33:49.012Z,9.17
2023-06-14T09:36:18.516Z,8.52
2023-06-14T09:39:18.388Z,8.00
2023-06-14T09:41:45.588Z,7.63
2023-06-14T09:44:20.757Z,7.15
2023-06-14T09:46:49.735Z,7.67
2023-06-14T09:49:17.715Z,7.07
2023-06-14T09:51:46.727Z,7.78
2023-06-14T09:54:17.708Z,7.88
2023-06-14T09:56:49.878Z,7.03
2023-06-14T09:59:28.080Z,6.70
2023-06-14T10:01:59.078Z,6.75
2023-06-14T10:04:28.587Z,7.18
2023-06-14T10:06:56.191Z,7.30
2023-06-14T10:09:23.424Z,6.60
2023-06-14T10:11:51.373Z,7.33
2023-06-14T10:14:19.583Z,7.22
2023-06-14T10:16:57.095Z,7.13
2023-06-14T10:19:49.385Z,6.57
2023-06-14T10:22:26.179Z,6.75
2023-06-14T10:24:53.177Z,6.27
2023-06-14T10:27:24.749Z,7.35
2023-06-14T10:29:55.262Z,7.10
2023-06-14T10:32:23.086Z,6.60
2023-06-14T10:35:03.234Z,6.38
2023-06-14T10:37:30.383Z,7.20
2023-06-14T10:39:57.692Z,6.68
2023-06-14T10:42:32.542Z,6.65
2023-06-14T10:45:01.304Z,6.15
2023-06-14T10:47:36.611Z,6.63
2023-06-14T10:50:08.015Z,6.30
2023-06-14T10:52:46.379Z,6.55
2023-06-14T10:55:23.002Z,6.68
2023-06-14T10:58:00.088Z,6.00
2023-06-14T11:00:29.032Z,5.82
2023-06-14T11:03:11.843Z,5.73
2023-06-14T11:05:56.812Z,5.72
2023-06-14T11:08:42.161Z,5.75
2023-06-14T11:11:10.824Z,6.43
2023-06-14T11:13:42.852Z,5.60
2023-06-14T11:16:14.522Z,6.03
2023-06-14T11:18:43.394Z,6.90
2023-06-14T11:21:10.482Z,6.03
2023-06-14T11:23:38.012Z,6.07
2023-06-14T11:26:08.168Z,5.97
2023-06-14T11:28:42.276Z,5.53
2023-06-14T11:31:11.468Z,5.63
2023-06-14T11:33:38.560Z,5.00
2023-06-14T11:36:09.704Z,5.15
2023-06-14T11:38:41.017Z,5.00
2023-06-14T11:41:08.052Z,5.63
2023-06-14T11:43:36.421Z,5.65
2023-06-14T11:48:40.905Z,5.45
2023-06-14T11:51:08.357Z,5.63
2023-06-14T11:53:35.822Z,5.03
2023-06-14T11:56:03.480Z,5.32
2023-06-14T11:58:31.296Z,5.20
2023-06-14T12:00:59.246Z,5.70
2023-06-14T12:03:28.579Z,5.45
2023-06-14T12:06:09.574Z,5.30
2023-06-14T12:08:42.027Z,4.82
2023-06-14T12:11:16.328Z,5.25
2023-06-14T12:13:44.468Z,5.13
2023-06-14T12:16:13.212Z,4.55
2023-06-14T12:18:42.446Z,5.93
2023-06-14T12:21:11.542Z,4.82
2023-06-14T12:23:52.253Z,4.85
2023-06-14T12:26:21.018Z,4.53
2023-06-14T12:28:49.309Z,5.10
2023-06-14T12:31:17.817Z,4.67
2023-06-14T12:33:47.050Z,4.03
2023-06-14T12:36:14.686Z,4.13
2023-06-14T12:38:42.570Z,4.63
2023-06-14T12:41:10.006Z,4.70
2023-06-14T12:43:37.040Z,4.60
2023-06-14T12:46:04.166Z,4.70
2023-06-14T12:48:32.384Z,4.35
2023-06-14T12:50:59.795Z,3.85
2023-06-14T12:53:26.880Z,4.30
2023-06-14T12:55:53.937Z,4.37
2023-06-14T12:58:21.301Z,4.20
2023-06-14T13:00:49.020Z,4.30
2023-06-14T13:03:16.389Z,4.00
2023-06-14T13:05:44.368Z,4.88
2023-06-14T13:08:11.624Z,4.27
2023-06-14T13:10:39.127Z,5.03
2023-06-14T13:13:06.178Z,4.78
2023-06-14T13:15:33.330Z,4.70
2023-06-14T13:18:00.412Z,5.60
2023-06-14T13:20:27.551Z,4.87
2023-06-14T13:22:54.557Z,5.47
2023-06-14T13:25:21.725Z,4.78
2023-06-14T13:27:48.761Z,4.60
2023-06-14T13:30:16.699Z,5.30
2023-06-14T13:32:44.291Z,4.73
2023-06-14T13:35:11.357Z,4.40
2023-06-14T13:37:39.552Z,5.57
2023-06-14T13:40:07.516Z,5.35
2023-06-14T13:42:34.631Z,5.30
2023-06-14T13:45:01.744Z,5.77
2023-06-14T13:47:28.762Z,5.88
2023-06-14T13:49:55.862Z,5.80
2023-06-14T13:52:22.882Z,6.68
2023-06-14T13:54:50.121Z,6.43
2023-06-14T13:57:17.626Z,6.00
2023-06-14T13:59:47.890Z,6.07
2023-06-14T14:02:15.614Z,5.65
2023-06-14T14:04:43.086Z,6.35
2023-06-14T14:07:10.346Z,6.50
2023-06-14T14:09:38.396Z,5.83
2023-06-14T14:12:06.351Z,6.18
2023-06-14T14:14:34.128Z,6.78
2023-06-14T14:17:01.148Z,6.18
2023-06-14T14:19:28.188Z,6.57
2023-06-14T14:21:55.750Z,6.93
2023-06-14T14:24:22.855Z,6.68
2023-06-14T14:26:50.888Z,6.10
2023-06-14T14:29:18.358Z,5.97
2023-06-14T14:31:45.735Z,5.85
2023-06-14T14:34:13.618Z,6.37
2023-06-14T14:36:43.711Z,8.40
2023-06-14T14:39:11.030Z,7.25
2023-06-14T14:41:42.285Z,7.28
2023-06-14T14:44:09.811Z,7.50
2023-06-14T14:46:37.028Z,6.87
2023-06-14T14:49:04.386Z,7.40
2023-06-14T14:51:31.454Z,6.95
2023-06-14T14:53:58.522Z,7.13
2023-06-14T14:56:26.765Z,6.57
2023-06-14T14:58:53.851Z,6.63
2023-06-14T15:01:21.119Z,7.00
2023-06-14T15:06:18.974Z,6.82
2023-06-14T15:08:46.159Z,6.47
2023-06-14T15:11:13.453Z,6.70
2023-06-14T15:13:40.596Z,6.97
2023-06-14T15:16:07.751Z,6.75
2023-06-14T15:18:34.853Z,6.20
2023-06-14T15:21:02.023Z,6.78
2023-06-14T15:23:29.167Z,6.50
2023-06-14T15:25:56.408Z,6.72
2023-06-14T15:28:25.453Z,6.68
2023-06-14T15:30:52.568Z,6.60
2023-06-14T15:33:19.803Z,6.55
2023-06-14T15:35:46.979Z,6.43
2023-06-14T15:38:14.060Z,6.50
2023-06-14T15:40:41.217Z,5.88
2023-06-14T15:43:08.688Z,5.60
2023-06-14T15:45:35.924Z,6.22
2023-06-14T15:48:05.245Z,5.53
2023-06-14T15:50:32.814Z,5.70
2023-06-14T15:52:59.802Z,6.13
2023-06-14T15:55:26.970Z,6.18
2023-06-14T15:57:54.068Z,5.75
2023-06-14T16:00:21.991Z,5.87
2023-06-14T16:02:50.997Z,6.18
2023-06-14T16:05:18.323Z,5.70
2023-06-14T16:07:45.979Z,5.75
2023-06-14T16:10:13.218Z,5.18
2023-06-14T16:12:40.250Z,5.50
2023-06-14T16:15:07.927Z,5.57
2023-06-14T16:17:35.011Z,5.53
2023-06-14T16:20:02.322Z,5.80
2023-06-14T16:22:29.301Z,5.30
2023-06-14T16:24:56.518Z,5.50
2023-06-14T16:27:23.683Z,5.60
2023-06-14T16:29:50.865Z,5.18
2023-06-14T16:32:18.237Z,5.50
2023-06-14T16:34:45.582Z,4.65
2023-06-14T16:37:12.691Z,5.03
2023-06-14T16:39:39.839Z,4.80
2023-06-14T16:42:09.638Z,5.60
2023-06-14T16:44:36.785Z,5.18
2023-06-14T16:47:05.133Z,4.70
2023-06-14T16:49:32.149Z,4.97
2023-06-14T16:51:59.093Z,4.93
2023-06-14T16:54:26.190Z,4.60
2023-06-14T16:57:12.705Z,4.88
2023-06-14T16:59:39.772Z,4.32
2023-06-14T17:02:07.026Z,4.40
2023-06-14T17:04:34.271Z,4.45
2023-06-14T17:07:01.564Z,4.65
2023-06-14T17:09:28.853Z,4.10
2023-06-14T17:11:56.181Z,4.68
2023-06-14T17:14:24.197Z,3.93
2023-06-14T17:16:51.247Z,4.53
2023-06-14T17:19:18.271Z,4.05
2023-06-14T17:21:50.161Z,3.38
2023-06-14T17:24:25.767Z,3.55
2023-06-14T17:26:54.117Z,2.93
2023-06-14T17:29:25.202Z,3.20
2023-06-14T17:31:52.422Z,2.88
2023-06-14T17:34:19.573Z,2.90
2023-06-14T17:36:46.674Z,2.58
2023-06-14T17:39:13.741Z,2.97
2023-06-14T17:41:40.927Z,2.47
2023-06-14T17:44:09.357Z,2.95
2023-06-14T17:46:36.584Z,3.15
2023-06-14T18:00:26.072Z,2.92
2023-06-14T18:02:53.321Z,2.92
2023-06-14T18:05:20.529Z,2.95
2023-06-14T18:07:47.689Z,2.90
2023-06-14T18:10:17.022Z,3.40
2023-06-14T18:12:44.389Z,3.70
2023-06-14T18:15:11.648Z,3.72
2023-06-14T18:17:38.799Z,4.05
2023-06-14T18:20:06.654Z,4.00
2023-06-14T18:22:33.793Z,3.63
2023-06-14T18:25:00.863Z,4.20
2023-06-14T18:27:27.976Z,4.22
2023-06-14T18:29:55.016Z,3.85
2023-06-14T18:32:22.184Z,3.47
2023-06-14T18:34:50.343Z,3.83
2023-06-14T18:37:17.600Z,4.20
2023-06-14T18:39:44.567Z,4.45
2023-06-14T18:42:12.884Z,4.45
2023-06-14T18:44:40.126Z,5.00
2023-06-14T18:47:07.566Z,5.20
2023-06-14T18:49:35.657Z,4.70
2023-06-14T18:52:02.825Z,4.15
2023-06-14T18:54:29.901Z,4.55
2023-06-14T18:56:56.919Z,4.70
2023-06-14T18:59:23.950Z,4.57
2023-06-14T19:01:51.039Z,4.50
2023-06-14T19:04:18.209Z,5.40
2023-06-14T19:06:46.617Z,4.60
2023-06-14T19:09:15.301Z,5.10
2023-06-14T19:11:43.853Z,4.55
2023-06-14T19:14:10.820Z,4.80
2023-06-14T19:16:37.903Z,4.65
2023-06-14T19:19:05.093Z,4.90
2023-06-14T19:21:32.124Z,4.73
2023-06-14T19:23:59.862Z,4.93
2023-06-14T19:26:27.461Z,5.60
2023-06-14T19:28:57.782Z,5.43
2023-06-14T19:31:28.119Z,5.85
2023-06-14T19:33:55.166Z,5.63
2023-06-14T19:36:22.388Z,5.72
2023-06-14T19:38:50.384Z,5.97
2023-06-14T19:41:18.988Z,5.78
2023-06-14T19:43:46.581Z,5.57
2023-06-14T19:46:13.780Z,5.33
2023-06-14T19:48:41.753Z,7.60
2023-06-14T19:51:08.857Z,7.72
2023-06-14T19:53:35.973Z,8.02
2023-06-14T19:56:03.006Z,6.88
2023-06-14T19:58:30.224Z,7.23
2023-06-14T20:00:57.251Z,7.30
2023-06-14T20:03:24.210Z,8.25
2023-06-14T20:05:52.498Z,9.38
2023-06-14T20:08:24.500Z,7.97
2023-06-14T20:10:54.700Z,6.43
2023-06-14T20:13:21.794Z,6.40
2023-06-14T20:15:48.910Z,6.65
2023-06-14T20:18:16.251Z,6.82
2023-06-14T20:20:45.091Z,6.40
2023-06-14T20:23:12.543Z,6.20
2023-06-14T20:25:39.677Z,5.82
2023-06-14T20:28:06.941Z,6.72
2023-06-14T20:30:34.072Z,6.22
2023-06-14T20:33:01.307Z,6.72
2023-06-14T20:35:28.609Z,6.83
2023-06-14T20:37:56.008Z,9.32
2023-06-14T20:40:24.574Z,9.20
2023-06-14T20:42:54.149Z,7.55
2023-06-14T20:45:22.542Z,6.28
2023-06-14T20:47:49.774Z,7.00
2023-06-14T20:50:17.555Z,6.88
2023-06-14T20:52:45.005Z,6.55
2023-06-14T20:55:12.153Z,7.75
2023-06-14T20:57:39.216Z,7.80
2023-06-14T21:00:11.825Z,8.13
2023-06-14T21:02:40.294Z,6.50
2023-06-14T21:05:10.611Z,6.68
2023-06-14T21:07:37.999Z,6.60
2023-06-14T21:10:05.924Z,6.80
2023-06-14T21:12:33.238Z,6.80
2023-06-14T21:15:00.364Z,7.05
2023-06-14T21:17:28.900Z,7.10
2023-06-14T21:19:55.980Z,6.65
2023-06-14T21:22:23.351Z,7.38
2023-06-14T21:24:50.385Z,6.47
2023-06-14T21:27:17.469Z,6.88
2023-06-14T21:29:45.235Z,6.57
2023-06-14T21:32:12.354Z,6.53
2023-06-14T21:34:41.835Z,7.05
2023-06-14T21:37:10.584Z,6.73
2023-06-14T21:39:39.477Z,6.68
2023-06-14T21:42:09.859Z,7.15
2023-06-14T21:44:42.123Z,7.20
2023-06-14T21:47:14.149Z,6.43
2023-06-14T21:49:42.146Z,7.43
2023-06-14T21:52:09.931Z,6.97
2023-06-14T21:54:37.021Z,7.00
2023-06-14T21:57:04.366Z,6.80
2023-06-14T21:59:31.654Z,6.95
2023-06-14T22:01:58.646Z,7.07
2023-06-14T22:04:25.963Z,7.20
2023-06-14T22:06:53.296Z,6.88
2023-06-14T22:09:21.210Z,7.25
2023-06-14T22:11:50.508Z,8.32
2023-06-14T22:14:22.192Z,8.40
2023-06-14T22:16:52.577Z,9.48
2023-06-14T22:19:20.121Z,7.10
2023-06-14T22:21:52.246Z,7.85
2023-06-14T22:24:20.405Z,8.65
2023-06-14T22:26:50.353Z,9.63
2023-06-14T22:29:18.249Z,8.82
2023-06-14T22:31:45.558Z,8.93
2023-06-14T22:34:12.801Z,7.97
2023-06-14T22:36:41.868Z,8.57
2023-06-14T22:39:13.051Z,8.40
2023-06-14T22:41:40.329Z,8.35
2023-06-14T22:44:07.926Z,7.68
2023-06-14T22:46:35.385Z,7.95
2023-06-14T22:49:03.087Z,7.63
2023-06-14T22:51:30.486Z,6.83
2023-06-14T22:53:57.566Z,7.32
2023-06-14T22:56:24.654Z,7.97
2023-06-14T22:58:54.684Z,7.40
2023-06-14T23:01:28.076Z,7.97
2023-06-14T23:03:56.623Z,7.30
2023-06-14T23:06:26.768Z,7.47
2023-06-14T23:08:55.566Z,7.57
2023-06-14T23:11:23.377Z,7.45
2023-06-14T23:13:57.339Z,6.35
2023-06-14T23:16:24.686Z,7.10
2023-06-14T23:18:52.762Z,7.03
2023-06-14T23:21:20.371Z,6.90
2023-06-14T23:23:51.744Z,6.28
2023-06-14T23:26:21.992Z,6.07
2023-06-14T23:28:55.477Z,6.27
2023-06-14T23:31:23.913Z,6.15
2023-06-14T23:33:53.748Z,7.05
2023-06-14T23:36:21.398Z,6.60
2023-06-14T23:38:49.464Z,6.60
2023-06-14T23:41:17.493Z,6.47
2023-06-14T23:43:46.334Z,6.75
2023-06-14T23:46:16.901Z,7.03
2023-06-14T23:48:44.432Z,7.93
2023-06-14T23:51:11.513Z,6.57
2023-06-14T23:53:38.879Z,7.63
2023-06-14T23:56:11.698Z,7.22
2023-06-14T23:58:39.023Z,7.45
